Aeroporto :
LOGIN :

Iscrizione | Disclaimer

   EN    FR    IT 

 










Sommario :    VFR   VFR Marginale   IFR   IFR Intensivo   IFR Molto Intensivo
Visibilità : 
Base nubi : 
>= 8 km
>= 3000ft
5 / 8 km
1000 / 3000 ft
1500m / 5 km
500 / 1000 ft
800 / 1500m
200 / 500 ft
< 800m
< 200 ft
Simboli :   Temporali  Nebbia  Neve Forte  Precipitazioni Forti  Vento > 20 kt
SIGMETs :   Varie  Temporali  Ghiacco  Turbolenza  Onda orograficha  Ceneri Vulcaniche






- Altitudine del aeroporto : 939 ft


LKKB - Kbely Air Base

ULTIMO METAR :
  • 220400Z VRB01KT 9999 BKN015 07/06 Q1010 NOSIG

METARs OBSOLETI :
  • 220300Z 28001KT 9999 BKN015 06/06 Q1010 NOSIG
  • 220200Z 10002KT 9000 OVC016 06/05 Q1010 NOSIG

TAF TAF LKKB
Valido dal 22 a 00 ore il 23 a 00 ore UTC


212300Z 2200/2300 19006KT 9999 SCT025
BECMG 2200/2202 VRB02KT 3000 BR BKN007
PROB30
TEMPO 2203/2208 0800 FG BKN001
BECMG 2209/2211 5000 BR SCT005 BKN020
BECMG 2215/2217 12008KT SCT025



MetMap, La meteo Aeronautica in un colpo d'occhio ! - Copyright ORBIFLY Dicembre 2007 - Disclaimer

ORBIFLY MET'MAP TEAM :

Programmazione e sviluppo : Alexandra Zaïnal
Concezione e sviluppo : Baudouin d'Aumeries
Co-Programmazione e sviluppo : Marc-Olivier Méhu
Supporto tecnico e logistico : Manuel Goepfert
Aiuto per la traduzione : Arnaldo La Scala

Contatto : metmap@orbifly.com




FONTI E CREDITI :

   NOAA